• Join FlightAware (Why Join?)
  • Login
  • US Flag 
06:29PM EDT


 

Airport Tracker/Info


-or-


 

Live Flight TrackerFlight Track Log ✈ LXJ444 ✈ 11-May-2013 ✈ KMBS - KIAD

Flight Track Log - Related Links

Times and Time Zones

All times are in EDT time to prevent confusion due to time zone crossing. See the LXJ444 flight status page for this flight to view local times or setup timezone preferences in your user account.

Time Position Orientation Groundspeed Altitude Reporting Facility
EDT Latitude Longitude Course Direction KTS MPH feet Rate Location/Type
03:49PM 43.5022 -83.9806 200° South 285 328 5,500  Level Cleveland Center
03:50PM 43.4944 -83.8914 97° East 280 322 8,700 3,240 Climbing Cleveland Center
03:51PM 43.4664 -83.7783 109° East 286 329 12,000 3,300 Climbing Cleveland Center
03:52PM 43.4064 -83.6808 130° Southeast 300 345 15,300 3,420 Climbing Cleveland Center
03:53PM 43.3342 -83.5831 135° Southeast 325 374 18,900 2,400 Climbing Cleveland Center
03:54PM 43.1412 -83.6461 200° South  Level FlightAware Approximate
03:54PM 43.2536 -83.4708 135° Southeast 353 406 20,200  Level Cleveland Center
03:55PM 43.1650 -83.3469 134° Southeast 395 455 21,700 2,220 Climbing Cleveland Center
03:56PM 43.0800 -83.2353 136° Southeast 414 476 24,700 2,820 Climbing Cleveland Center
03:57PM 42.9969 -83.1239 136° Southeast 420 483 27,400 2,400 Climbing Cleveland Center
03:58PM 42.9142 -83.0042 133° Southeast 420 483 29,500 1,740 Climbing Cleveland Center
03:59PM 42.8269 -82.8847 135° Southeast 425 489 30,900 1,560 Climbing Cleveland Center
04:00PM 42.7356 -82.7625 135° Southeast 437 503 32,700 1,560 Climbing Cleveland Center
04:01PM 42.6439 -82.6436 136° Southeast 447 514 34,100 1,200 Climbing Cleveland Center
04:02PM 42.5544 -82.5194 134° Southeast 453 521 35,100 900 Climbing Cleveland Center
04:03PM 42.4644 -82.4042 137° Southeast 453 521 35,900 780 Climbing Cleveland Center
04:04PM 42.3767 -82.2864 135° Southeast 448 516 36,700 1,080 Climbing Cleveland Center
04:05PM 42.2889 -82.1661 135° Southeast 448 516 38,100 1,260 Climbing Cleveland Center
04:06PM 42.2131 -82.0633 135° Southeast 442 509 39,300 1,080 Climbing Cleveland Center
04:07PM 42.1228 -81.9519 138° Southeast 442 509 40,300 840 Climbing Cleveland Center
04:08PM 42.0386 -81.8383 135° Southeast 437 503 41,000 300 Climbing Cleveland Center
04:09PM 41.9397 -81.7081 136° Southeast 443 510 41,000  Level Cleveland Center
04:10PM 41.8472 -81.5894 136° Southeast 448 516 41,000  Level Cleveland Center
04:11PM 41.7481 -81.4625 136° Southeast 463 533 41,000  Level Cleveland Center
04:12PM 41.6617 -81.3281 131° Southeast 474 545 41,000  Level Cleveland Center
04:13PM 41.6189 -81.1497 108° East 484 557 41,000  Level Cleveland Center
04:14PM 41.5819 -80.9717 105° East 490 564 41,000  Level Cleveland Center
04:15PM 41.5492 -80.8050 105° East 497 572 41,000 -60 Level Cleveland Center
04:16PM 41.5117 -80.6275 106° East 497 572 40,900 -780 Descending Cleveland Center
04:17PM 41.4722 -80.4472 106° East 496 571 39,500 -1,500 Descending Cleveland Center
04:18PM 41.4364 -80.2703 105° East 502 578 37,900 -1,560 Descending Cleveland Center
04:19PM 41.3961 -80.0878 106° East 502 578 36,400 -1,260 Descending Cleveland Center
04:20PM 41.3556 -79.9136 107° East 496 571 35,400 -720 Descending Cleveland Center
04:21PM 41.3067 -79.7456 111° Southeast 496 571 35,000 -240 Descending Cleveland Center
04:22PM 41.2075 -79.6117 135° Southeast 469 540 35,000  Level Cleveland Center
04:23PM 41.1106 -79.5000 139° Southeast 464 534 35,000  Level Cleveland Center
04:24PM 41.0136 -79.3833 138° Southeast 464 534 35,000 -720 Level Cleveland Center
04:25PM 40.9164 -79.2669 138° Southeast 471 542 33,600 -1,500 Descending Cleveland Center
04:26PM 40.8192 -79.1536 139° Southeast 471 542 32,100 -1,500 Descending Cleveland Center
04:27PM 40.7217 -79.0408 139° Southeast 471 542 30,600 -1,500 Descending Cleveland Center
04:28PM 40.6242 -78.9281 139° Southeast 466 536 29,100 -1,500 Descending Cleveland Center
04:29PM 40.5267 -78.8131 138° Southeast 466 536 27,600 -1,500 Descending Cleveland Center
04:30PM 40.4311 -78.6983 138° Southeast 466 536 26,100 -1,500 Descending Cleveland Center
04:31PM 40.3353 -78.5894 139° Southeast 466 536 24,700 -1,500 Descending Cleveland Center
04:32PM 40.2375 -78.4781 139° Southeast 461 531 23,200 -2,100 Descending Cleveland Center
04:33PM 40.1478 -78.3722 138° Southeast 461 531 20,600 -2,880 Descending Cleveland Center
04:35PM 39.9839 -78.1828 138° Southeast 425 489 14,600 -2,940 Descending Washington Center
04:36PM 39.9044 -78.0906 138° Southeast 402 463 11,800 -2,160 Descending Washington Center
04:37PM 39.8206 -78.0175 146° Southeast 380 437 10,300 -900 Descending Washington Center
04:38PM 39.7214 -77.9789 163° South 362 417 10,000 -180 Descending Washington Center
04:39PM 39.6261 -77.9436 164° South 362 417 10,000 -300 Level Washington Center
04:41PM 39.4667 -77.8833 164° South 287 330 9,300 -540 Descending Potomac TRACON
04:41PM 39.4525 -77.8761 159° South 343 395 9,000 -1,800 Descending Washington Center
04:42PM 39.3800 -77.8469 163° South 298 343 7,100 -1,560 Descending Washington Center
04:43PM 39.3031 -77.8392 176° South 283 326 6,000 -600 Descending Washington Center
04:44PM 39.2300 -77.8478 185° South 268 308 6,000  Level Washington Center
04:45PM 39.1628 -77.8778 199° South 268 308 6,000  Level Washington Center
04:46PM 39.0933 -77.9078 199° South 268 308 6,000  Level Washington Center
04:48PM 38.9667 -77.9667 200° South 262 302 6,000  Level Potomac TRACON
04:49PM 38.9000 -78.0000 201° Southwest 271 312 6,000  Level Potomac TRACON
04:50PM 38.8167 -78.0167 189° South 284 327 6,000  Level Potomac TRACON
04:51PM 38.7667 -77.9500 134° Southeast 285 328 6,000 -540 Level Potomac TRACON
04:52PM 38.7333 -77.8667 117° Southeast 262 302 5,000 -540 Descending Potomac TRACON
04:53PM 38.7167 -77.8000 108° East 243 280 5,000  Level Potomac TRACON
04:54PM 38.7167 -77.7000 90° East 244 281 5,000 -420 Level Potomac TRACON
04:55PM 38.7167 -77.6333 90° East 237 273 4,300 -600 Descending Potomac TRACON
04:56PM 38.7167 -77.5500 90° East 241 277 3,900 -660 Descending Potomac TRACON
04:57PM 38.7167 -77.4667 90° East 250 288 3,000 -480 Descending Potomac TRACON
04:58PM 38.7833 -77.4333 21° North 229 264 3,000 -540 Level Potomac TRACON
04:58PM 38.8333 -77.4333 360° North 221 254 2,000 -1,140 Descending Potomac TRACON